sensor_id;sensor_type;location;lat;lon;timestamp;temperature;humidity
13694;DHT22;6919;52.344;14.518;2023-07-09T00:02:22;17.90;99.90
13694;DHT22;6919;52.344;14.518;2023-07-09T00:04:53;17.70;99.90
13694;DHT22;6919;52.344;14.518;2023-07-09T00:07:24;17.60;99.90
13694;DHT22;6919;52.344;14.518;2023-07-09T00:10:00;17.50;99.90
13694;DHT22;6919;52.344;14.518;2023-07-09T00:12:29;17.50;99.90
13694;DHT22;6919;52.344;14.518;2023-07-09T00:14:57;17.40;99.90
13694;DHT22;6919;52.344;14.518;2023-07-09T00:17:27;17.40;99.90
13694;DHT22;6919;52.344;14.518;2023-07-09T00:19:59;17.40;99.90
13694;DHT22;6919;52.344;14.518;2023-07-09T00:22:28;17.40;99.90
13694;DHT22;6919;52.344;14.518;2023-07-09T00:24:56;17.30;99.90
13694;DHT22;6919;52.344;14.518;2023-07-09T00:27:28;17.40;99.90
13694;DHT22;6919;52.344;14.518;2023-07-09T00:29:58;17.30;99.90
13694;DHT22;6919;52.344;14.518;2023-07-09T00:32:26;17.20;99.90
13694;DHT22;6919;52.344;14.518;2023-07-09T00:34:55;17.10;99.90
13694;DHT22;6919;52.344;14.518;2023-07-09T00:37:25;17.10;99.90
13694;DHT22;6919;52.344;14.518;2023-07-09T00:39:53;17.10;99.90
13694;DHT22;6919;52.344;14.518;2023-07-09T00:42:23;17.00;99.90
13694;DHT22;6919;52.344;14.518;2023-07-09T00:44:52;17.00;99.90
13694;DHT22;6919;52.344;14.518;2023-07-09T00:47:28;16.90;99.90
13694;DHT22;6919;52.344;14.518;2023-07-09T00:50:11;16.90;99.90
13694;DHT22;6919;52.344;14.518;2023-07-09T00:52:53;17.00;99.90
13694;DHT22;6919;52.344;14.518;2023-07-09T00:55:27;17.10;99.90
13694;DHT22;6919;52.344;14.518;2023-07-09T00:58:02;17.10;99.90
13694;DHT22;6919;52.344;14.518;2023-07-09T01:00:36;17.10;99.90
13694;DHT22;6919;52.344;14.518;2023-07-09T01:03:18;16.90;99.90
13694;DHT22;6919;52.344;14.518;2023-07-09T01:05:54;16.70;99.90
13694;DHT22;6919;52.344;14.518;2023-07-09T01:08:25;16.60;99.90
13694;DHT22;6919;52.344;14.518;2023-07-09T01:10:58;16.50;99.90
13694;DHT22;6919;52.344;14.518;2023-07-09T01:13:27;16.50;99.90
13694;DHT22;6919;52.344;14.518;2023-07-09T01:15:59;16.60;99.90
13694;DHT22;6919;52.344;14.518;2023-07-09T01:18:28;16.60;99.90
13694;DHT22;6919;52.344;14.518;2023-07-09T01:21:02;16.50;99.90
13694;DHT22;6919;52.344;14.518;2023-07-09T01:23:43;16.40;99.90
13694;DHT22;6919;52.344;14.518;2023-07-09T01:26:12;16.30;99.90
13694;DHT22;6919;52.344;14.518;2023-07-09T01:28:42;16.30;99.90
13694;DHT22;6919;52.344;14.518;2023-07-09T01:31:11;16.40;99.90
13694;DHT22;6919;52.344;14.518;2023-07-09T01:33:42;16.40;99.90
13694;DHT22;6919;52.344;14.518;2023-07-09T01:36:18;16.40;99.90
13694;DHT22;6919;52.344;14.518;2023-07-09T01:38:49;16.30;99.90
13694;DHT22;6919;52.344;14.518;2023-07-09T01:41:20;16.20;99.90
13694;DHT22;6919;52.344;14.518;2023-07-09T01:43:48;16.10;99.90
13694;DHT22;6919;52.344;14.518;2023-07-09T01:46:17;16.00;99.90
13694;DHT22;6919;52.344;14.518;2023-07-09T01:48:45;16.00;99.90
13694;DHT22;6919;52.344;14.518;2023-07-09T01:51:16;15.90;99.90
13694;DHT22;6919;52.344;14.518;2023-07-09T01:53:45;15.90;99.90
13694;DHT22;6919;52.344;14.518;2023-07-09T01:56:13;15.80;99.90
13694;DHT22;6919;52.344;14.518;2023-07-09T01:58:41;15.80;99.90
13694;DHT22;6919;52.344;14.518;2023-07-09T02:01:10;15.80;99.90
13694;DHT22;6919;52.344;14.518;2023-07-09T02:03:38;15.90;99.90
13694;DHT22;6919;52.344;14.518;2023-07-09T02:06:06;15.80;99.90
13694;DHT22;6919;52.344;14.518;2023-07-09T02:08:39;15.70;99.90
13694;DHT22;6919;52.344;14.518;2023-07-09T02:11:07;15.60;99.90
13694;DHT22;6919;52.344;14.518;2023-07-09T02:13:35;15.70;99.90
13694;DHT22;6919;52.344;14.518;2023-07-09T02:16:04;15.70;99.90
13694;DHT22;6919;52.344;14.518;2023-07-09T02:18:33;15.70;99.90
13694;DHT22;6919;52.344;14.518;2023-07-09T02:21:02;15.80;99.90
13694;DHT22;6919;52.344;14.518;2023-07-09T02:23:30;15.70;99.90
13694;DHT22;6919;52.344;14.518;2023-07-09T02:26:00;15.60;99.90
13694;DHT22;6919;52.344;14.518;2023-07-09T02:28:29;15.60;99.90
13694;DHT22;6919;52.344;14.518;2023-07-09T02:30:57;15.60;99.90
13694;DHT22;6919;52.344;14.518;2023-07-09T02:33:25;15.60;99.90
13694;DHT22;6919;52.344;14.518;2023-07-09T02:35:53;15.50;99.90
13694;DHT22;6919;52.344;14.518;2023-07-09T02:38:22;15.50;99.90
13694;DHT22;6919;52.344;14.518;2023-07-09T02:40:50;15.50;99.90
13694;DHT22;6919;52.344;14.518;2023-07-09T02:43:21;15.50;99.90
13694;DHT22;6919;52.344;14.518;2023-07-09T02:45:49;15.40;99.90
13694;DHT22;6919;52.344;14.518;2023-07-09T02:48:18;15.40;99.90
13694;DHT22;6919;52.344;14.518;2023-07-09T02:50:46;15.30;99.90
13694;DHT22;6919;52.344;14.518;2023-07-09T02:53:14;15.30;99.90
13694;DHT22;6919;52.344;14.518;2023-07-09T02:55:42;15.30;99.90
13694;DHT22;6919;52.344;14.518;2023-07-09T02:58:11;15.30;99.90
13694;DHT22;6919;52.344;14.518;2023-07-09T03:00:40;15.40;99.90
13694;DHT22;6919;52.344;14.518;2023-07-09T03:03:08;15.30;99.90
13694;DHT22;6919;52.344;14.518;2023-07-09T03:05:37;15.40;99.90
13694;DHT22;6919;52.344;14.518;2023-07-09T03:08:06;15.30;99.90
13694;DHT22;6919;52.344;14.518;2023-07-09T03:10:34;15.30;99.90
13694;DHT22;6919;52.344;14.518;2023-07-09T03:13:02;15.20;99.90
13694;DHT22;6919;52.344;14.518;2023-07-09T03:15:31;15.30;99.90
13694;DHT22;6919;52.344;14.518;2023-07-09T03:18:01;15.30;99.90
13694;DHT22;6919;52.344;14.518;2023-07-09T03:20:29;15.30;99.90
13694;DHT22;6919;52.344;14.518;2023-07-09T03:22:57;15.30;99.90
13694;DHT22;6919;52.344;14.518;2023-07-09T03:25:26;15.40;99.90
13694;DHT22;6919;52.344;14.518;2023-07-09T03:27:54;15.40;99.90
13694;DHT22;6919;52.344;14.518;2023-07-09T03:30:22;15.40;99.90
13694;DHT22;6919;52.344;14.518;2023-07-09T03:32:50;15.30;99.90
13694;DHT22;6919;52.344;14.518;2023-07-09T03:35:20;15.30;99.90
13694;DHT22;6919;52.344;14.518;2023-07-09T03:37:48;15.30;99.90
13694;DHT22;6919;52.344;14.518;2023-07-09T03:40:22;15.40;99.90
13694;DHT22;6919;52.344;14.518;2023-07-09T03:42:50;15.50;99.90
13694;DHT22;6919;52.344;14.518;2023-07-09T03:45:18;15.70;99.90
13694;DHT22;6919;52.344;14.518;2023-07-09T03:47:47;15.80;99.90
13694;DHT22;6919;52.344;14.518;2023-07-09T03:50:15;15.80;99.90
13694;DHT22;6919;52.344;14.518;2023-07-09T03:52:45;15.90;99.90
13694;DHT22;6919;52.344;14.518;2023-07-09T03:55:13;16.10;99.90
13694;DHT22;6919;52.344;14.518;2023-07-09T03:57:42;16.20;99.90
13694;DHT22;6919;52.344;14.518;2023-07-09T04:00:11;16.30;99.90
13694;DHT22;6919;52.344;14.518;2023-07-09T04:02:40;16.30;99.90
13694;DHT22;6919;52.344;14.518;2023-07-09T04:05:10;16.50;99.90
13694;DHT22;6919;52.344;14.518;2023-07-09T04:07:39;16.60;99.90
13694;DHT22;6919;52.344;14.518;2023-07-09T04:10:09;16.70;99.90
13694;DHT22;6919;52.344;14.518;2023-07-09T04:12:38;16.90;99.90
13694;DHT22;6919;52.344;14.518;2023-07-09T04:15:07;17.10;99.90
13694;DHT22;6919;52.344;14.518;2023-07-09T04:17:36;17.20;99.90
13694;DHT22;6919;52.344;14.518;2023-07-09T04:20:06;17.40;99.90
13694;DHT22;6919;52.344;14.518;2023-07-09T04:22:36;17.60;99.90
13694;DHT22;6919;52.344;14.518;2023-07-09T04:25:07;17.80;99.90
13694;DHT22;6919;52.344;14.518;2023-07-09T04:27:39;17.90;99.90
13694;DHT22;6919;52.344;14.518;2023-07-09T04:30:10;18.10;99.90
13694;DHT22;6919;52.344;14.518;2023-07-09T04:32:40;18.30;99.90
13694;DHT22;6919;52.344;14.518;2023-07-09T04:35:10;18.40;99.90
13694;DHT22;6919;52.344;14.518;2023-07-09T04:37:41;18.40;99.90
13694;DHT22;6919;52.344;14.518;2023-07-09T04:40:12;18.40;99.90
13694;DHT22;6919;52.344;14.518;2023-07-09T04:42:41;18.70;99.90
13694;DHT22;6919;52.344;14.518;2023-07-09T04:45:11;19.00;99.90
13694;DHT22;6919;52.344;14.518;2023-07-09T04:47:40;19.20;99.90
13694;DHT22;6919;52.344;14.518;2023-07-09T04:50:09;19.30;99.90
13694;DHT22;6919;52.344;14.518;2023-07-09T04:52:38;19.30;99.90
13694;DHT22;6919;52.344;14.518;2023-07-09T04:55:07;19.30;99.90
13694;DHT22;6919;52.344;14.518;2023-07-09T04:57:37;19.40;99.90
13694;DHT22;6919;52.344;14.518;2023-07-09T05:00:07;19.70;99.90
13694;DHT22;6919;52.344;14.518;2023-07-09T05:02:37;19.70;99.90
13694;DHT22;6919;52.344;14.518;2023-07-09T05:05:07;20.10;99.90
13694;DHT22;6919;52.344;14.518;2023-07-09T05:07:35;20.40;99.90
13694;DHT22;6919;52.344;14.518;2023-07-09T05:10:05;20.40;99.90
13694;DHT22;6919;52.344;14.518;2023-07-09T05:12:33;20.50;99.90
13694;DHT22;6919;52.344;14.518;2023-07-09T05:15:04;20.80;99.90
13694;DHT22;6919;52.344;14.518;2023-07-09T05:17:33;21.10;99.90
13694;DHT22;6919;52.344;14.518;2023-07-09T05:20:01;21.10;99.90
13694;DHT22;6919;52.344;14.518;2023-07-09T05:22:29;21.10;99.90
13694;DHT22;6919;52.344;14.518;2023-07-09T05:24:58;21.20;99.90
13694;DHT22;6919;52.344;14.518;2023-07-09T05:27:27;21.50;99.90
13694;DHT22;6919;52.344;14.518;2023-07-09T05:29:56;22.20;99.90
13694;DHT22;6919;52.344;14.518;2023-07-09T05:32:26;22.00;99.90
13694;DHT22;6919;52.344;14.518;2023-07-09T05:34:54;21.90;99.90
13694;DHT22;6919;52.344;14.518;2023-07-09T05:37:23;22.50;99.90
13694;DHT22;6919;52.344;14.518;2023-07-09T05:39:51;22.40;99.90
13694;DHT22;6919;52.344;14.518;2023-07-09T05:42:19;22.40;99.90
13694;DHT22;6919;52.344;14.518;2023-07-09T05:44:47;22.60;99.90
13694;DHT22;6919;52.344;14.518;2023-07-09T05:47:16;22.90;99.90
13694;DHT22;6919;52.344;14.518;2023-07-09T05:49:45;22.70;99.70
13694;DHT22;6919;52.344;14.518;2023-07-09T05:52:16;22.60;99.90
13694;DHT22;6919;52.344;14.518;2023-07-09T05:54:45;22.90;99.90
13694;DHT22;6919;52.344;14.518;2023-07-09T05:57:13;22.90;99.90
13694;DHT22;6919;52.344;14.518;2023-07-09T05:59:41;22.70;99.90
13694;DHT22;6919;52.344;14.518;2023-07-09T06:02:11;23.10;97.20
13694;DHT22;6919;52.344;14.518;2023-07-09T06:04:40;22.60;99.90
13694;DHT22;6919;52.344;14.518;2023-07-09T06:07:10;22.80;99.90
13694;DHT22;6919;52.344;14.518;2023-07-09T06:09:40;22.90;99.90
13694;DHT22;6919;52.344;14.518;2023-07-09T06:12:09;22.80;99.90
13694;DHT22;6919;52.344;14.518;2023-07-09T06:14:38;22.70;99.90
13694;DHT22;6919;52.344;14.518;2023-07-09T06:17:06;22.90;99.90
13694;DHT22;6919;52.344;14.518;2023-07-09T06:19:35;23.30;99.90
13694;DHT22;6919;52.344;14.518;2023-07-09T06:22:04;23.60;99.90
13694;DHT22;6919;52.344;14.518;2023-07-09T06:24:34;23.70;99.90
13694;DHT22;6919;52.344;14.518;2023-07-09T06:27:04;23.70;99.00
13694;DHT22;6919;52.344;14.518;2023-07-09T06:29:33;23.70;98.30
13694;DHT22;6919;52.344;14.518;2023-07-09T06:32:01;23.90;99.70
13694;DHT22;6919;52.344;14.518;2023-07-09T06:34:29;24.70;93.90
13694;DHT22;6919;52.344;14.518;2023-07-09T06:36:58;24.90;88.20
13694;DHT22;6919;52.344;14.518;2023-07-09T06:39:26;24.90;88.90
13694;DHT22;6919;52.344;14.518;2023-07-09T06:41:55;24.90;89.40
13694;DHT22;6919;52.344;14.518;2023-07-09T06:44:24;25.30;89.00
13694;DHT22;6919;52.344;14.518;2023-07-09T06:46:52;25.30;85.70
13694;DHT22;6919;52.344;14.518;2023-07-09T06:49:21;25.30;79.00
13694;DHT22;6919;52.344;14.518;2023-07-09T06:51:49;25.20;80.90
13694;DHT22;6919;52.344;14.518;2023-07-09T06:54:20;25.40;81.80
13694;DHT22;6919;52.344;14.518;2023-07-09T06:56:48;25.20;83.40
13694;DHT22;6919;52.344;14.518;2023-07-09T06:59:18;25.70;84.90
13694;DHT22;6919;52.344;14.518;2023-07-09T07:01:46;26.30;76.80
13694;DHT22;6919;52.344;14.518;2023-07-09T07:04:14;26.30;74.70
13694;DHT22;6919;52.344;14.518;2023-07-09T07:06:44;26.80;70.70
13694;DHT22;6919;52.344;14.518;2023-07-09T07:09:16;26.70;71.10
13694;DHT22;6919;52.344;14.518;2023-07-09T07:11:45;26.50;68.10
13694;DHT22;6919;52.344;14.518;2023-07-09T07:14:13;26.20;71.90
13694;DHT22;6919;52.344;14.518;2023-07-09T07:16:43;26.50;72.20
13694;DHT22;6919;52.344;14.518;2023-07-09T07:19:11;26.50;75.50
13694;DHT22;6919;52.344;14.518;2023-07-09T07:21:39;26.90;69.00
13694;DHT22;6919;52.344;14.518;2023-07-09T07:24:07;26.50;71.00
13694;DHT22;6919;52.344;14.518;2023-07-09T07:26:36;26.70;70.50
13694;DHT22;6919;52.344;14.518;2023-07-09T07:29:04;27.00;70.00
13694;DHT22;6919;52.344;14.518;2023-07-09T07:31:32;27.40;64.70
13694;DHT22;6919;52.344;14.518;2023-07-09T07:34:04;27.30;65.60
13694;DHT22;6919;52.344;14.518;2023-07-09T07:36:32;27.20;63.40
13694;DHT22;6919;52.344;14.518;2023-07-09T07:39:06;27.10;65.30
13694;DHT22;6919;52.344;14.518;2023-07-09T07:41:34;27.80;59.20
13694;DHT22;6919;52.344;14.518;2023-07-09T07:44:03;28.40;58.20
13694;DHT22;6919;52.344;14.518;2023-07-09T07:46:33;28.20;58.00
13694;DHT22;6919;52.344;14.518;2023-07-09T07:49:03;27.50;61.10
13694;DHT22;6919;52.344;14.518;2023-07-09T07:51:31;27.70;59.10
13694;DHT22;6919;52.344;14.518;2023-07-09T07:54:00;27.70;59.20
13694;DHT22;6919;52.344;14.518;2023-07-09T07:56:31;27.40;60.20
13694;DHT22;6919;52.344;14.518;2023-07-09T07:59:01;27.60;60.10
13694;DHT22;6919;52.344;14.518;2023-07-09T08:01:30;27.80;62.70
13694;DHT22;6919;52.344;14.518;2023-07-09T08:03:58;28.10;58.20
13694;DHT22;6919;52.344;14.518;2023-07-09T08:06:28;27.90;61.00
13694;DHT22;6919;52.344;14.518;2023-07-09T08:08:58;27.90;57.80
13694;DHT22;6919;52.344;14.518;2023-07-09T08:11:26;28.10;56.50
13694;DHT22;6919;52.344;14.518;2023-07-09T08:13:56;28.60;54.40
13694;DHT22;6919;52.344;14.518;2023-07-09T08:16:25;28.70;53.90
13694;DHT22;6919;52.344;14.518;2023-07-09T08:18:53;28.80;52.20
13694;DHT22;6919;52.344;14.518;2023-07-09T08:21:24;28.60;53.70
13694;DHT22;6919;52.344;14.518;2023-07-09T08:23:54;28.60;54.40
13694;DHT22;6919;52.344;14.518;2023-07-09T08:26:23;28.40;52.40
13694;DHT22;6919;52.344;14.518;2023-07-09T08:28:51;28.40;55.00
13694;DHT22;6919;52.344;14.518;2023-07-09T08:31:21;28.50;54.30
13694;DHT22;6919;52.344;14.518;2023-07-09T08:33:49;28.50;51.80
13694;DHT22;6919;52.344;14.518;2023-07-09T08:36:20;28.60;53.80
13694;DHT22;6919;52.344;14.518;2023-07-09T08:38:48;29.00;50.70
13694;DHT22;6919;52.344;14.518;2023-07-09T08:41:26;29.20;48.90
13694;DHT22;6919;52.344;14.518;2023-07-09T08:44:19;29.70;49.00
13694;DHT22;6919;52.344;14.518;2023-07-09T08:47:03;29.90;46.40
13694;DHT22;6919;52.344;14.518;2023-07-09T08:49:44;29.80;47.40
13694;DHT22;6919;52.344;14.518;2023-07-09T08:52:23;29.50;48.90
13694;DHT22;6919;52.344;14.518;2023-07-09T08:54:58;29.10;44.30
13694;DHT22;6919;52.344;14.518;2023-07-09T08:57:36;29.10;48.20
13694;DHT22;6919;52.344;14.518;2023-07-09T09:00:14;29.40;47.40
13694;DHT22;6919;52.344;14.518;2023-07-09T09:02:51;29.70;46.10
13694;DHT22;6919;52.344;14.518;2023-07-09T09:05:24;29.70;42.70
13694;DHT22;6919;52.344;14.518;2023-07-09T09:07:57;29.50;40.10
13694;DHT22;6919;52.344;14.518;2023-07-09T09:10:39;29.40;41.60
13694;DHT22;6919;52.344;14.518;2023-07-09T09:13:13;29.80;40.10
13694;DHT22;6919;52.344;14.518;2023-07-09T09:15:45;29.50;40.00
13694;DHT22;6919;52.344;14.518;2023-07-09T09:18:21;29.70;41.40
13694;DHT22;6919;52.344;14.518;2023-07-09T09:20:56;29.50;43.00
13694;DHT22;6919;52.344;14.518;2023-07-09T09:23:38;29.60;42.60
13694;DHT22;6919;52.344;14.518;2023-07-09T09:26:16;29.80;42.90
13694;DHT22;6919;52.344;14.518;2023-07-09T09:28:51;29.90;39.70
13694;DHT22;6919;52.344;14.518;2023-07-09T09:31:20;30.00;39.80
13694;DHT22;6919;52.344;14.518;2023-07-09T09:33:49;29.80;38.30
13694;DHT22;6919;52.344;14.518;2023-07-09T09:36:20;30.10;40.30
13694;DHT22;6919;52.344;14.518;2023-07-09T09:38:51;30.40;36.70
13694;DHT22;6919;52.344;14.518;2023-07-09T09:41:22;30.10;37.30
13694;DHT22;6919;52.344;14.518;2023-07-09T09:43:55;30.60;37.90
13694;DHT22;6919;52.344;14.518;2023-07-09T09:46:25;30.50;35.80
13694;DHT22;6919;52.344;14.518;2023-07-09T09:48:58;30.60;35.10
13694;DHT22;6919;52.344;14.518;2023-07-09T09:51:29;30.80;32.50
13694;DHT22;6919;52.344;14.518;2023-07-09T09:54:00;31.00;29.50
13694;DHT22;6919;52.344;14.518;2023-07-09T09:56:34;31.20;32.60
13694;DHT22;6919;52.344;14.518;2023-07-09T09:59:20;31.10;32.50
13694;DHT22;6919;52.344;14.518;2023-07-09T10:01:58;31.10;28.80
13694;DHT22;6919;52.344;14.518;2023-07-09T10:04:30;30.70;29.10
13694;DHT22;6919;52.344;14.518;2023-07-09T10:07:03;30.70;27.80
13694;DHT22;6919;52.344;14.518;2023-07-09T10:09:44;30.80;27.40
13694;DHT22;6919;52.344;14.518;2023-07-09T10:12:32;30.90;26.80
13694;DHT22;6919;52.344;14.518;2023-07-09T10:15:25;30.60;27.80
13694;DHT22;6919;52.344;14.518;2023-07-09T10:18:07;30.70;28.80
13694;DHT22;6919;52.344;14.518;2023-07-09T10:20:49;30.70;28.60
13694;DHT22;6919;52.344;14.518;2023-07-09T10:23:27;31.10;28.20
13694;DHT22;6919;52.344;14.518;2023-07-09T10:26:07;31.10;27.50
13694;DHT22;6919;52.344;14.518;2023-07-09T10:29:07;31.00;28.40
13694;DHT22;6919;52.344;14.518;2023-07-09T10:32:04;31.00;26.90
13694;DHT22;6919;52.344;14.518;2023-07-09T10:34:48;30.50;27.90
13694;DHT22;6919;52.344;14.518;2023-07-09T10:37:31;30.40;30.00
13694;DHT22;6919;52.344;14.518;2023-07-09T10:40:18;30.40;27.40
13694;DHT22;6919;52.344;14.518;2023-07-09T10:42:59;30.80;27.50
13694;DHT22;6919;52.344;14.518;2023-07-09T10:45:34;31.10;27.90
13694;DHT22;6919;52.344;14.518;2023-07-09T10:48:13;31.40;26.90
13694;DHT22;6919;52.344;14.518;2023-07-09T10:50:47;31.70;25.40
13694;DHT22;6919;52.344;14.518;2023-07-09T10:53:28;31.80;25.20
13694;DHT22;6919;52.344;14.518;2023-07-09T10:56:04;31.70;26.40
13694;DHT22;6919;52.344;14.518;2023-07-09T10:58:41;31.90;26.70
13694;DHT22;6919;52.344;14.518;2023-07-09T11:01:27;31.90;26.40
13694;DHT22;6919;52.344;14.518;2023-07-09T11:04:04;32.00;26.20
13694;DHT22;6919;52.344;14.518;2023-07-09T11:06:41;32.10;27.10
13694;DHT22;6919;52.344;14.518;2023-07-09T11:09:19;32.00;27.00
13694;DHT22;6919;52.344;14.518;2023-07-09T11:11:54;31.60;26.00
13694;DHT22;6919;52.344;14.518;2023-07-09T11:14:31;31.80;28.30
13694;DHT22;6919;52.344;14.518;2023-07-09T11:17:04;31.80;26.00
13694;DHT22;6919;52.344;14.518;2023-07-09T11:19:44;31.80;26.60
13694;DHT22;6919;52.344;14.518;2023-07-09T11:22:21;31.60;25.80
13694;DHT22;6919;52.344;14.518;2023-07-09T11:24:52;31.60;26.30
13694;DHT22;6919;52.344;14.518;2023-07-09T11:27:33;31.70;27.30
13694;DHT22;6919;52.344;14.518;2023-07-09T11:30:21;31.70;27.30
13694;DHT22;6919;52.344;14.518;2023-07-09T11:32:57;31.60;27.30
13694;DHT22;6919;52.344;14.518;2023-07-09T11:35:52;32.10;28.30
13694;DHT22;6919;52.344;14.518;2023-07-09T11:38:25;32.40;27.60
13694;DHT22;6919;52.344;14.518;2023-07-09T11:40:56;32.40;26.40
13694;DHT22;6919;52.344;14.518;2023-07-09T11:43:28;32.40;26.00
13694;DHT22;6919;52.344;14.518;2023-07-09T11:46:06;32.70;27.70
13694;DHT22;6919;52.344;14.518;2023-07-09T11:48:41;32.60;24.60
13694;DHT22;6919;52.344;14.518;2023-07-09T11:51:16;32.70;27.20
13694;DHT22;6919;52.344;14.518;2023-07-09T11:53:52;32.50;27.30
13694;DHT22;6919;52.344;14.518;2023-07-09T11:56:24;32.60;27.60
13694;DHT22;6919;52.344;14.518;2023-07-09T11:58:56;33.00;27.20
13694;DHT22;6919;52.344;14.518;2023-07-09T12:01:28;33.30;26.50
13694;DHT22;6919;52.344;14.518;2023-07-09T12:04:03;33.10;26.80
13694;DHT22;6919;52.344;14.518;2023-07-09T12:06:38;33.30;26.70
13694;DHT22;6919;52.344;14.518;2023-07-09T12:09:09;32.90;26.50
13694;DHT22;6919;52.344;14.518;2023-07-09T12:11:44;32.70;25.90
13694;DHT22;6919;52.344;14.518;2023-07-09T12:14:19;32.70;26.60
13694;DHT22;6919;52.344;14.518;2023-07-09T12:16:52;32.80;25.90
13694;DHT22;6919;52.344;14.518;2023-07-09T12:19:23;33.00;25.90
13694;DHT22;6919;52.344;14.518;2023-07-09T12:21:57;33.20;27.40
13694;DHT22;6919;52.344;14.518;2023-07-09T12:24:28;33.30;24.40
13694;DHT22;6919;52.344;14.518;2023-07-09T12:27:01;33.10;25.90
13694;DHT22;6919;52.344;14.518;2023-07-09T12:29:34;33.10;25.30
13694;DHT22;6919;52.344;14.518;2023-07-09T12:32:12;33.10;26.70
13694;DHT22;6919;52.344;14.518;2023-07-09T12:34:45;33.00;23.90
13694;DHT22;6919;52.344;14.518;2023-07-09T12:37:16;33.20;24.20
13694;DHT22;6919;52.344;14.518;2023-07-09T12:39:51;33.10;23.60
13694;DHT22;6919;52.344;14.518;2023-07-09T12:42:28;33.30;23.50
13694;DHT22;6919;52.344;14.518;2023-07-09T12:44:59;33.50;24.10
13694;DHT22;6919;52.344;14.518;2023-07-09T12:47:27;33.80;23.90
13694;DHT22;6919;52.344;14.518;2023-07-09T12:50:01;33.90;23.20
13694;DHT22;6919;52.344;14.518;2023-07-09T12:52:47;34.20;22.50
13694;DHT22;6919;52.344;14.518;2023-07-09T12:55:22;34.20;22.30
13694;DHT22;6919;52.344;14.518;2023-07-09T12:57:55;34.10;23.20
13694;DHT22;6919;52.344;14.518;2023-07-09T13:00:30;34.70;21.70
13694;DHT22;6919;52.344;14.518;2023-07-09T13:03:00;35.30;21.40
13694;DHT22;6919;52.344;14.518;2023-07-09T13:05:33;35.70;20.30
13694;DHT22;6919;52.344;14.518;2023-07-09T13:08:03;35.70;20.30
13694;DHT22;6919;52.344;14.518;2023-07-09T13:10:42;36.00;20.40
13694;DHT22;6919;52.344;14.518;2023-07-09T13:13:13;36.10;19.30
13694;DHT22;6919;52.344;14.518;2023-07-09T13:15:43;36.70;18.90
13694;DHT22;6919;52.344;14.518;2023-07-09T13:18:16;37.60;18.30
13694;DHT22;6919;52.344;14.518;2023-07-09T13:20:46;37.60;17.60
13694;DHT22;6919;52.344;14.518;2023-07-09T13:23:18;37.20;17.60
13694;DHT22;6919;52.344;14.518;2023-07-09T13:25:48;37.60;16.90
13694;DHT22;6919;52.344;14.518;2023-07-09T13:28:20;37.60;16.20
13694;DHT22;6919;52.344;14.518;2023-07-09T13:30:55;37.70;16.20
13694;DHT22;6919;52.344;14.518;2023-07-09T13:33:25;37.50;16.10
13694;DHT22;6919;52.344;14.518;2023-07-09T13:35:54;37.90;15.40
13694;DHT22;6919;52.344;14.518;2023-07-09T13:38:24;38.10;15.00
13694;DHT22;6919;52.344;14.518;2023-07-09T13:40:56;38.10;16.30
13694;DHT22;6919;52.344;14.518;2023-07-09T13:43:30;39.20;15.70
13694;DHT22;6919;52.344;14.518;2023-07-09T13:46:02;39.00;15.40
13694;DHT22;6919;52.344;14.518;2023-07-09T13:48:35;38.50;14.60
13694;DHT22;6919;52.344;14.518;2023-07-09T13:51:13;38.60;16.30
13694;DHT22;6919;52.344;14.518;2023-07-09T13:53:45;38.30;16.10
13694;DHT22;6919;52.344;14.518;2023-07-09T13:58:44;38.30;13.40
13694;DHT22;6919;52.344;14.518;2023-07-09T14:01:14;38.10;15.60
13694;DHT22;6919;52.344;14.518;2023-07-09T14:03:45;38.60;15.20
13694;DHT22;6919;52.344;14.518;2023-07-09T14:06:14;38.10;14.50
13694;DHT22;6919;52.344;14.518;2023-07-09T14:08:46;38.30;14.30
13694;DHT22;6919;52.344;14.518;2023-07-09T14:11:17;38.70;14.30
13694;DHT22;6919;52.344;14.518;2023-07-09T14:13:46;38.50;14.90
13694;DHT22;6919;52.344;14.518;2023-07-09T14:16:14;39.00;14.00
13694;DHT22;6919;52.344;14.518;2023-07-09T14:18:43;39.60;14.20
13694;DHT22;6919;52.344;14.518;2023-07-09T14:21:18;39.30;13.00
13694;DHT22;6919;52.344;14.518;2023-07-09T14:23:53;38.00;14.20
13694;DHT22;6919;52.344;14.518;2023-07-09T14:26:21;38.10;14.60
13694;DHT22;6919;52.344;14.518;2023-07-09T14:28:50;38.10;14.30
13694;DHT22;6919;52.344;14.518;2023-07-09T14:31:21;38.60;14.50
13694;DHT22;6919;52.344;14.518;2023-07-09T14:33:56;38.20;13.60
13694;DHT22;6919;52.344;14.518;2023-07-09T14:36:44;38.50;15.90
13694;DHT22;6919;52.344;14.518;2023-07-09T14:39:15;38.10;15.00
13694;DHT22;6919;52.344;14.518;2023-07-09T14:41:43;38.20;14.50
13694;DHT22;6919;52.344;14.518;2023-07-09T14:44:21;38.00;14.70
13694;DHT22;6919;52.344;14.518;2023-07-09T14:46:52;38.00;15.20
13694;DHT22;6919;52.344;14.518;2023-07-09T14:49:23;38.20;15.20
13694;DHT22;6919;52.344;14.518;2023-07-09T14:51:53;38.60;14.60
13694;DHT22;6919;52.344;14.518;2023-07-09T14:54:26;38.70;15.20
13694;DHT22;6919;52.344;14.518;2023-07-09T14:56:57;38.00;14.60
13694;DHT22;6919;52.344;14.518;2023-07-09T14:59:26;38.20;15.60
13694;DHT22;6919;52.344;14.518;2023-07-09T15:01:55;38.10;13.90
13694;DHT22;6919;52.344;14.518;2023-07-09T15:04:29;38.60;14.20
13694;DHT22;6919;52.344;14.518;2023-07-09T15:07:00;38.90;13.40
13694;DHT22;6919;52.344;14.518;2023-07-09T15:09:36;38.10;13.60
13694;DHT22;6919;52.344;14.518;2023-07-09T15:12:13;37.60;14.70
13694;DHT22;6919;52.344;14.518;2023-07-09T15:14:46;37.40;15.00
13694;DHT22;6919;52.344;14.518;2023-07-09T15:17:15;37.40;14.70
13694;DHT22;6919;52.344;14.518;2023-07-09T15:19:43;37.00;14.90
13694;DHT22;6919;52.344;14.518;2023-07-09T15:22:30;36.70;14.90
13694;DHT22;6919;52.344;14.518;2023-07-09T15:25:03;35.90;15.50
13694;DHT22;6919;52.344;14.518;2023-07-09T15:27:36;35.40;16.30
13694;DHT22;6919;52.344;14.518;2023-07-09T15:30:15;35.30;16.40
13694;DHT22;6919;52.344;14.518;2023-07-09T15:32:47;35.40;16.00
13694;DHT22;6919;52.344;14.518;2023-07-09T15:35:18;35.00;16.40
13694;DHT22;6919;52.344;14.518;2023-07-09T15:37:47;34.60;16.00
13694;DHT22;6919;52.344;14.518;2023-07-09T15:40:20;34.40;16.90
13694;DHT22;6919;52.344;14.518;2023-07-09T15:42:53;34.10;17.40
13694;DHT22;6919;52.344;14.518;2023-07-09T15:45:23;34.20;17.00
13694;DHT22;6919;52.344;14.518;2023-07-09T15:47:52;34.40;17.20
13694;DHT22;6919;52.344;14.518;2023-07-09T15:50:23;34.50;16.80
13694;DHT22;6919;52.344;14.518;2023-07-09T15:52:54;34.40;17.20
13694;DHT22;6919;52.344;14.518;2023-07-09T15:55:26;34.20;17.20
13694;DHT22;6919;52.344;14.518;2023-07-09T15:57:55;34.20;17.40
13694;DHT22;6919;52.344;14.518;2023-07-09T16:00:26;33.70;18.00
13694;DHT22;6919;52.344;14.518;2023-07-09T16:02:56;33.60;18.60